Huvudsida
METAR-TAF:

METAR-TAF

Flygplatser :

Viterbo, Italien

latitud: 42-26N, longitud: 012-03E, höjd: 300 m

Aktuellt väderrapport

Denna rapport gjordes för 2 timmar och 28 minuter sedan, klockan 18:55 UTC
Temperatur 14°C
Fuktighet 88%
Tryck 1014 hPa
Sikt 10 km eller mer
Spridda moln på en höjd av 1800 ft

METAR: LIRV 211855Z /////KT 9999 SCT018 14/12 Q1014

Tid: 23:23 (21:23 UTC)

Väderprognos

Denna rapport gjordes för 4 timmar och 23 minuter sedan, klockan 17:00 UTC
Prognos gäller från 21 kl. 18 UTC till 22 kl. 03 UTC
Vind 10 kt från syd
Sikt 10 km eller mer
Få moln på en höjd av 2500 ft
Spridda moln på en höjd av 5000 ft
Blir
från 21 kl. 20 UTC till 21 kl. 22 UTC
Vind 3 kt varierande vindriktning
Blir
från 21 kl. 22 UTC till 21 kl. 24 UTC
Sikt: 5000 m
Spridda moln på en höjd av 800 ft
fuktdis

TAF: LIRV 211700Z 2118/2203 17010KT 9999 FEW025 SCT050 BECMG 2120/2122 VRB03KT BECMG 2122/2124 5000 BR SCT008

Aktuella väderrapporter och prognoser från 4000 flygplatser (METAR- och TAF-rapporter).

De tillgängliga stationerna syns som gula och röda prickar på kartan.

För musen över prickarna för att se namnen på stationerna.

Klicka sedan för att få väderrapporter och prognoser.

För att ändra kartan: Klicka på de gröna knapparna med ett svart kors på för att zooma in; den gröna knappen med ett streck på för att zooma ut; eller på de gröna pilarna för angränsande kartor.


METAR-TAF: